Latest Weather Observations for Warburto Point

IDS60801

Issued at 9:31 pm CST Thursday 5 May 2016 (issued every 30 minutes, with the page automatically refreshed every 10 minutes)

About weather observations | Map of weather stations | Latest weather observations for SA | Other Formats
Station Details ID: 022053 Name: WARBURTO POINT Lat: -34.00 Lon: 137.53 Height: 1.0 m
Data from the previous 72 hours. | See also: Recent months for locations in South Australia
Date/Time
CST
Temp
°C
App
Temp
°C
Dew
Point
Rel
Hum
%
Delta-T
°C
Wind Press
QNH
hPa
Press
MSL
hPa
Rain
since 9 am
mm
Dir
 
Spd
km/h
Gust
km/h
Spd
kts
Gust
kts
05/09:30pm - - - - - NNW 19 20 10 11 - - -
05/09:00pm - - - - - N 22 26 12 14 - - -
05/08:30pm - - - - - N 17 20 9 11 - - -
05/08:00pm - - - - - N 17 20 9 11 - - -
05/07:30pm - - - - - NNE 19 22 10 12 - - -
05/07:00pm - - - - - NNE 19 22 10 12 - - -
05/06:30pm - - - - - NNE 19 22 10 12 - - -
05/06:00pm - - - - - NNE 20 24 11 13 - - -
05/05:30pm - - - - - NNE 20 26 11 14 - - -
05/05:00pm - - - - - NNE 22 26 12 14 - - -
05/04:30pm - - - - - NNE 24 28 13 15 - - -
05/04:00pm - - - - - NNE 24 32 13 17 - - -
05/03:30pm - - - - - NNE 26 32 14 17 - - -
05/03:00pm - - - - - NNE 26 32 14 17 - - -
05/02:30pm - - - - - NNE 28 32 15 17 - - -
05/02:00pm - - - - - NNE 30 35 16 19 - - -
05/01:30pm - - - - - NNE 26 32 14 17 - - -
05/01:00pm - - - - - NNE 28 35 15 19 - - -
05/12:30pm - - - - - N 32 37 17 20 - - -
05/12:00pm - - - - - N 30 35 16 19 - - -
05/11:30am - - - - - N 28 32 15 17 - - -
05/11:00am - - - - - N 30 35 16 19 - - -
05/10:30am - - - - - N 33 39 18 21 - - -
05/10:00am - - - - - N 35 41 19 22 - - -
05/09:30am - - - - - N 35 43 19 23 - - -
05/09:00am - - - - - N 32 39 17 21 - - -
05/08:30am - - - - - N 35 44 19 24 - - -
05/08:00am - - - - - N 33 41 18 22 - - -
05/07:30am - - - - - N 33 39 18 21 - - -
05/07:00am - - - - - N 32 37 17 20 - - -
05/06:30am - - - - - N 30 35 16 19 - - -
05/06:00am - - - - - N 26 30 14 16 - - -
05/05:30am - - - - - N 20 24 11 13 - - -
05/05:00am - - - - - N 20 24 11 13 - - -
05/04:30am - - - - - NNW 20 26 11 14 - - -
05/04:00am - - - - - NNW 22 26 12 14 - - -
05/03:30am - - - - - NNW 20 26 11 14 - - -
05/03:00am - - - - - NNW 20 26 11 14 - - -
05/02:30am - - - - - NNW 20 24 11 13 - - -
05/02:00am - - - - - NNW 19 22 10 12 - - -
05/01:30am - - - - - NW 17 20 9 11 - - -
05/01:00am - - - - - NW 17 20 9 11 - - -
05/12:30am - - - - - WNW 17 20 9 11 - - -
05/12:00am - - - - - WNW 20 26 11 14 - - -
 
Date/Time
CST
Temp
°C
App
Temp
°C
Dew
Point
Rel
Hum
%
Delta-T
°C
Wind Press
QNH
hPa
Press
MSL
hPa
Rain
since 9 am
mm
Dir
 
Spd
km/h
Gust
km/h
Spd
kts
Gust
kts
04/11:30pm - - - - - NW 24 32 13 17 - - -
04/11:00pm - - - - - NW 26 32 14 17 - - -
04/10:30pm - - - - - NNW 28 32 15 17 - - -
04/10:00pm - - - - - NNW 28 33 15 18 - - -
04/09:30pm - - - - - NNW 26 30 14 16 - - -
04/09:00pm - - - - - NNW 24 28 13 15 - - -
04/08:30pm - - - - - NNW 24 30 13 16 - - -
04/08:00pm - - - - - NNW 19 26 10 14 - - -
04/07:30pm - - - - - N 15 19 8 10 - - -
04/07:00pm - - - - - NNE 20 26 11 14 - - -
04/06:30pm - - - - - NNE 20 24 11 13 - - -
04/06:00pm - - - - - NNE 20 26 11 14 - - -
04/05:30pm - - - - - NNE 20 24 11 13 - - -
04/05:00pm - - - - - NNE 19 24 10 13 - - -
04/04:30pm - - - - - N 13 17 7 9 - - -
04/04:00pm - - - - - N 11 13 6 7 - - -
04/03:30pm - - - - - N 11 13 6 7 - - -
04/03:00pm - - - - - NNW 11 13 6 7 - - -
04/02:30pm - - - - - NNW 11 15 6 8 - - -
04/02:00pm - - - - - NW 15 19 8 10 - - -
04/01:30pm - - - - - NW 19 22 10 12 - - -
04/01:00pm - - - - - NW 19 22 10 12 - - -
04/12:30pm - - - - - NW 19 26 10 14 - - -
04/12:00pm - - - - - NW 20 26 11 14 - - -
04/11:30am - - - - - WNW 20 28 11 15 - - -
04/11:00am - - - - - NW 22 28 12 15 - - -
04/10:30am - - - - - - - - - - - - -
04/10:00am - - - - - NW 24 30 13 16 - - -
04/09:30am - - - - - NW 20 28 11 15 - - -
04/09:00am - - - - - WNW 19 24 10 13 - - -
04/08:30am - - - - - NW 19 24 10 13 - - -
04/08:00am - - - - - NW 20 30 11 16 - - -
04/07:30am - - - - - WNW 20 24 11 13 - - -
04/07:00am - - - - - W 20 26 11 14 - - -
04/06:30am - - - - - WNW 17 24 9 13 - - -
04/06:00am - - - - - W 22 28 12 15 - - -
04/05:30am - - - - - WSW 17 24 9 13 - - -
04/05:00am - - - - - WSW 19 26 10 14 - - -
04/04:30am - - - - - WSW 20 28 11 15 - - -
04/04:00am - - - - - WSW 20 28 11 15 - - -
04/03:30am - - - - - WSW 22 32 12 17 - - -
04/03:00am - - - - - WSW 26 33 14 18 - - -
04/02:30am - - - - - WSW 28 35 15 19 - - -
04/02:00am - - - - - WSW 24 30 13 16 - - -
04/01:30am - - - - - SW 26 33 14 18 - - -
04/01:00am - - - - - WSW 37 50 20 27 - - -
04/12:50am - - - - - WSW 28 48 15 26 - - -
04/12:30am - - - - - W 32 39 17 21 - - -
04/12:00am - - - - - WSW 30 37 16 20 - - -
 
Date/Time
CST
Temp
°C
App
Temp
°C
Dew
Point
Rel
Hum
%
Delta-T
°C
Wind Press
QNH
hPa
Press
MSL
hPa
Rain
since 9 am
mm
Dir
 
Spd
km/h
Gust
km/h
Spd
kts
Gust
kts
03/11:30pm - - - - - WSW 28 37 15 20 - - -
03/11:00pm - - - - - WSW 28 37 15 20 - - -
03/10:30pm - - - - - WSW 22 33 12 18 - - -
03/10:00pm - - - - - WSW 26 37 14 20 - - -
03/09:30pm - - - - - SW 24 33 13 18 - - -
03/09:00pm - - - - - WSW 26 35 14 19 - - -
03/08:33pm - - - - - WSW 30 50 16 27 - - -
03/08:30pm - - - - - WSW 26 35 14 19 - - -
03/08:00pm - - - - - WSW 28 35 15 19 - - -
03/07:30pm - - - - - WSW 26 33 14 18 - - -
03/07:00pm - - - - - SW 30 37 16 20 - - -
03/06:30pm - - - - - WSW 28 35 15 19 - - -
03/06:00pm - - - - - W 28 44 15 24 - - -
03/05:30pm - - - - - WSW 24 33 13 18 - - -
03/05:00pm - - - - - WSW 28 37 15 20 - - -
03/04:30pm - - - - - WSW 32 39 17 21 - - -
03/04:00pm - - - - - WSW 33 43 18 23 - - -
03/03:30pm - - - - - WSW 37 57 20 31 - - -
03/03:24pm - - - - - WSW 28 57 15 31 - - -
03/03:00pm - - - - - W 33 48 18 26 - - -
03/02:41pm - - - - - WSW 39 57 21 31 - - -
03/02:30pm - - - - - W 43 57 23 31 - - -
03/02:02pm - - - - - W 41 59 22 32 - - -
03/02:00pm - - - - - W 44 59 24 32 - - -
03/01:43pm - - - - - WSW 43 61 23 33 - - -
03/01:37pm - - - - - W 35 59 19 32 - - -
03/01:30pm - - - - - W 28 39 15 21 - - -
03/01:00pm - - - - - WNW 33 43 18 23 - - -
03/12:30pm - - - - - W 41 54 22 29 - - -
03/12:00pm - - - - - W 43 54 23 29 - - -
03/11:30am - - - - - WNW 35 46 19 25 - - -
03/11:00am - - - - - WNW 35 44 19 24 - - -
03/10:30am - - - - - WNW 39 50 21 27 - - -
03/10:00am - - - - - WNW 43 56 23 30 - - -
03/09:32am - - - - - WNW 39 57 21 31 - - -
03/09:30am - - - - - WNW 37 52 20 28 - - -
03/09:00am - - - - - NW 39 52 21 28 - - -
03/08:30am - - - - - NW 37 48 20 26 - - -
03/08:00am - - - - - NW 41 50 22 27 - - -
03/07:30am - - - - - NW 41 52 22 28 - - -
03/07:00am - - - - - NW 39 52 21 28 - - -
03/06:30am - - - - - NW 39 52 21 28 - - -
03/06:00am - - - - - NW 39 50 21 27 - - -
03/05:30am - - - - - NW 37 48 20 26 - - -
03/05:00am - - - - - NW 39 48 21 26 - - -
03/04:30am - - - - - NW 35 43 19 23 - - -
03/04:00am - - - - - NW 39 48 21 26 - - -
03/03:30am - - - - - NW 35 44 19 24 - - -
03/03:00am - - - - - NNW 35 43 19 23 - - -
03/02:30am - - - - - NNW 33 41 18 22 - - -
03/02:00am - - - - - NW 35 43 19 23 - - -
03/01:30am - - - - - NW 33 43 18 23 - - -
03/01:00am - - - - - NW 33 39 18 21 - - -
03/12:30am - - - - - NW 33 41 18 22 - - -
03/12:00am - - - - - NW 35 46 19 25 - - -
 
Date/Time
CST
Temp
°C
App
Temp
°C
Dew
Point
Rel
Hum
%
Delta-T
°C
Wind Press
QNH
hPa
Press
MSL
hPa
Rain
since 9 am
mm
Dir
 
Spd
km/h
Gust
km/h
Spd
kts
Gust
kts
02/11:30pm - - - - - NW 33 41 18 22 - - -
02/11:00pm - - - - - NW 35 43 19 23 - - -
02/10:30pm - - - - - NW 32 39 17 21 - - -
02/10:00pm - - - - - WNW 37 48 20 26 - - -

Other Formats:

Comma delimited format used in spreadsheet applications
http://www.bom.gov.au/fwo/IDS60801/IDS60801.94666.axf

JavaScript Object Notation format (JSON) in row-major order
http://www.bom.gov.au/fwo/IDS60801/IDS60801.94666.json